Latest Weather Observations for Edenhope

IDV60801

Issued at 3:32 pm EST Sunday 20 August 2017 (issued every 30 minutes, with the page automatically refreshed every 10 minutes)

About weather observations | Map of weather stations | Latest weather observations for VIC | Other Formats
Station Details ID: 079099 Name: EDENHOPE AIRPORT Lat: -37.02 Lon: 141.27 Height: 155.0 m
Data from the previous 72 hours. | See also: Recent months at Edenhope
Date/Time
EST
Temp
°C
App
Temp
°C
Dew
Point
°C
Rel
Hum
%
Delta-T
°C
Wind Press
QNH
hPa
Press
MSL
hPa
Rain since
9am
mm
Dir  Spd
km/h
Gust
km/h
Spd
kts
Gust
kts
20/03:30pm 9.8 5.8 3.1 63 2.9 NNE 13 22 7 12 - - 0.0
20/03:00pm 10.2 6.7 3.3 62 3.0 NE 11 19 6 10 - - 0.0
20/02:30pm 9.2 5.6 3.0 65 2.7 NNE 11 17 6 9 - - 0.0
20/02:00pm 9.3 4.9 2.6 63 2.9 NNE 15 24 8 13 - - 0.0
20/01:30pm 9.1 4.3 2.7 64 2.7 NNE 17 26 9 14 - - 0.0
20/01:00pm 9.1 5.1 3.1 66 2.6 NE 13 20 7 11 - - 0.0
20/12:30pm 8.7 5.1 3.1 68 2.4 NE 11 17 6 9 - - 0.0
20/12:00pm 8.4 4.7 2.6 67 2.5 NE 11 17 6 9 - - 0.0
20/11:30am 8.3 4.6 2.5 67 2.5 NNE 11 17 6 9 - - 0.0
20/11:00am 8.2 4.1 2.4 67 2.4 NNE 13 19 7 10 - - 0.0
20/10:30am 7.4 3.8 2.9 73 1.9 NNE 11 17 6 9 - - 0.0
20/10:00am 6.6 3.3 2.7 76 1.6 NE 9 13 5 7 - - 0.0
20/09:30am 6.8 3.6 3.1 77 1.6 NE 9 15 5 8 - - 0.0
20/09:00am 5.8 2.5 2.3 78 1.4 NE 9 13 5 7 - - 0.2
20/08:30am 4.4 1.0 1.8 83 1.0 NE 9 15 5 8 - - 0.2
20/08:00am 3.1 -0.4 1.2 87 0.7 ENE 9 13 5 7 - - 0.2
20/07:30am 2.8 -0.7 1.2 89 0.6 NE 9 9 5 5 - - 0.2
20/07:00am 2.8 -0.7 1.3 90 0.6 NE 9 11 5 6 - - 0.2
20/06:30am 2.8 -0.7 1.5 91 0.5 NE 9 11 5 6 - - 0.2
20/06:00am 2.2 -1.0 1.0 92 0.5 ENE 7 9 4 5 - - 0.2
20/05:30am 2.1 -1.1 0.8 91 0.5 ENE 7 9 4 5 - - 0.2
20/05:00am 2.4 -0.7 1.1 91 0.5 ENE 7 9 4 5 - - 0.2
20/04:30am 2.4 -0.7 1.1 91 0.5 ENE 7 9 4 5 - - 0.2
20/04:00am 2.6 -0.5 1.6 93 0.4 ENE 7 9 4 5 - - 0.2
20/03:30am 2.5 -0.6 1.6 94 0.4 ENE 7 9 4 5 - - 0.2
20/03:00am 2.3 -0.8 1.4 94 0.3 ENE 7 7 4 4 - - 0.2
20/02:30am 2.3 -0.6 1.4 94 0.3 ENE 6 9 3 5 - - 0.2
20/02:00am 2.7 -0.3 2.1 96 0.2 E 7 7 4 4 - - 0.0
20/01:30am 2.9 0.0 2.5 97 0.2 E 7 9 4 5 - - 0.0
20/01:00am 2.1 -0.9 1.7 97 0.2 E 7 9 4 5 - - 0.0
20/12:30am 2.0 -0.5 1.6 97 0.2 E 4 6 2 3 - - 0.0
20/12:00am 2.3 -0.1 1.9 97 0.2 ESE 4 4 2 2 - - 0.0
 
Date/Time
EST
Temp
°C
App
Temp
°C
Dew
Point
°C
Rel
Hum
%
Delta-T
°C
Wind Press
QNH
hPa
Press
MSL
hPa
Rain since
9am
mm
Dir  Spd
km/h
Gust
km/h
Spd
kts
Gust
kts
19/11:30pm 2.2 -0.6 1.8 97 0.2 ESE 6 6 3 3 - - 0.0
19/11:00pm 2.3 -0.2 1.7 96 0.2 ESE 4 6 2 3 - - 0.0
19/10:30pm 2.9 1.3 2.3 96 0.2 CALM 0 0 0 0 - - 0.0
19/10:00pm 3.0 1.4 2.4 96 0.2 CALM 0 2 0 1 - - 0.0
19/09:30pm 3.4 1.1 2.7 95 0.3 E 4 4 2 2 - - 0.0
19/09:00pm 3.7 1.4 2.8 94 0.4 E 4 4 2 2 - - 0.0
19/08:30pm 3.7 1.8 2.7 93 0.4 ENE 2 4 1 2 - - 0.0
19/08:00pm 4.8 3.4 3.6 92 0.5 CALM 0 2 0 1 - - 0.0
19/07:30pm 5.5 4.2 4.0 90 0.6 CALM 0 0 0 0 - - 0.0
19/07:00pm 6.3 4.3 4.5 88 0.8 ESE 4 4 2 2 - - 0.0
19/06:30pm 7.2 5.8 3.8 79 1.5 CALM 0 2 0 1 - - 0.0
19/06:00pm 9.2 7.5 4.2 71 2.2 ESE 2 4 1 2 - - 0.0
19/05:30pm 9.6 7.5 3.8 67 2.6 ESE 4 6 2 3 - - 0.0
19/05:00pm 10.2 6.3 3.5 63 3.0 SE 13 19 7 10 - - 0.0
19/04:30pm 11.2 8.5 2.5 55 3.8 S 6 9 3 5 - - 0.0
19/04:00pm 11.1 8.2 2.7 56 3.7 S 7 13 4 7 - - 0.0
19/03:30pm 10.4 5.8 3.9 64 2.9 S 17 26 9 14 - - 0.0
19/03:00pm 11.9 9.2 2.6 53 4.1 SW 6 11 3 6 - - 0.0
19/02:30pm 11.6 8.3 4.6 62 3.2 SSE 11 17 6 9 - - 0.0
19/02:00pm 11.3 7.6 2.6 55 3.8 SW 11 19 6 10 - - 0.0
19/01:30pm 11.8 7.9 3.3 56 3.8 SW 13 19 7 10 - - 0.0
19/01:00pm 10.6 7.5 3.4 61 3.2 SSE 9 11 5 6 - - 0.0
19/12:30pm 11.2 8.5 3.7 60 3.3 SSW 7 13 4 7 - - 0.0
19/12:00pm 10.9 7.8 3.5 60 3.3 S 9 17 5 9 - - 0.0
19/11:30am 9.9 6.4 3.6 65 2.8 S 11 19 6 10 - - 0.0
19/11:00am 10.5 7.3 5.3 70 2.4 S 11 19 6 10 - - 0.0
19/10:30am 9.2 6.4 5.2 76 1.8 S 9 13 5 7 - - 0.0
19/10:00am 8.0 5.8 5.3 83 1.2 SSW 6 7 3 4 - - 0.0
19/09:30am 6.4 4.2 5.4 93 0.4 SSW 6 7 3 4 - - 0.0
19/09:00am 5.4 3.6 5.3 99 0.0 W 4 6 2 3 - - 2.8
19/08:30am 4.5 2.9 4.4 99 0.0 SSW 2 4 1 2 - - 2.8
19/08:00am 2.7 0.0 2.6 99 0.0 S 6 6 3 3 - - 2.8
19/07:30am 2.0 -0.1 1.7 98 0.1 SSW 2 4 1 2 - - 2.8
19/07:00am 1.4 -0.8 1.1 98 0.1 SSW 2 4 1 2 - - 2.8
19/06:30am 1.4 -1.2 1.1 98 0.1 WSW 4 4 2 2 - - 2.8
19/06:00am 0.9 -1.0 0.6 98 0.1 CALM 0 4 0 2 - - 2.8
19/05:30am 1.6 -0.2 1.3 98 0.1 CALM 0 0 0 0 - - 2.8
19/05:00am 1.8 0.0 1.4 97 0.2 CALM 0 0 0 0 - - 2.8
19/04:30am 1.3 -1.3 0.9 97 0.2 WNW 4 6 2 3 - - 2.8
19/04:00am 2.1 0.4 1.7 97 0.2 CALM 0 0 0 0 - - 2.8
19/03:30am 2.0 0.3 1.6 97 0.2 CALM 0 0 0 0 - - 2.8
19/03:00am 1.7 -0.5 1.1 96 0.2 W 2 4 1 2 - - 2.8
19/02:30am 3.1 1.5 2.7 97 0.2 CALM 0 0 0 0 - - 2.8
19/02:00am 4.0 1.8 3.6 97 0.2 SSW 4 6 2 3 - - 2.8
19/01:30am 3.8 1.6 3.2 96 0.2 WSW 4 6 2 3 - - 2.8
19/01:00am 3.1 0.7 2.4 95 0.3 WNW 4 6 2 3 - - 2.8
19/12:30am 3.7 1.4 3.0 95 0.3 WNW 4 4 2 2 - - 2.8
19/12:00am 4.3 2.1 3.6 95 0.3 WSW 4 6 2 3 - - 2.8
 
Date/Time
EST
Temp
°C
App
Temp
°C
Dew
Point
°C
Rel
Hum
%
Delta-T
°C
Wind Press
QNH
hPa
Press
MSL
hPa
Rain since
9am
mm
Dir  Spd
km/h
Gust
km/h
Spd
kts
Gust
kts
18/11:30pm 3.6 1.2 2.4 92 0.5 WNW 4 6 2 3 - - 2.8
18/11:00pm 4.9 2.7 3.6 91 0.5 SW 4 6 2 3 - - 2.8
18/10:30pm 4.6 2.0 3.3 91 0.5 WSW 6 9 3 5 - - 2.8
18/10:00pm 4.6 2.3 2.8 88 0.7 WSW 4 9 2 5 - - 2.8
18/09:30pm 5.0 2.2 3.2 88 0.7 WSW 7 11 4 6 - - 2.8
18/09:00pm 5.4 2.6 3.4 87 0.8 SW 7 9 4 5 - - 2.8
18/08:30pm 5.4 2.9 3.9 90 0.6 SW 6 7 3 4 - - 2.8
18/08:00pm 5.7 3.3 4.3 91 0.6 SW 6 9 3 5 - - 2.8
18/07:30pm 5.8 3.2 4.3 90 0.6 WSW 7 11 4 6 - - 2.8
18/07:00pm 6.1 3.6 4.6 90 0.7 WSW 7 11 4 6 - - 2.8
18/06:30pm 6.2 3.8 4.4 88 0.8 WSW 6 9 3 5 - - 2.8
18/06:00pm 7.5 4.2 4.8 83 1.2 WSW 11 19 6 10 - - 2.2
18/05:30pm 8.1 4.0 4.3 77 1.7 WSW 15 20 8 11 - - 2.2
18/05:00pm 8.3 3.2 4.3 76 1.8 WSW 20 33 11 18 - - 2.2
18/04:30pm 9.0 1.6 4.2 72 2.1 WSW 32 52 17 28 - - 2.2
18/04:26pm 9.2 2.6 4.4 72 2.1 WSW 28 52 15 28 - - 2.2
18/04:00pm 9.9 4.7 5.3 73 2.1 W 22 35 12 19 - - 2.2
18/03:30pm 9.4 4.6 5.4 76 1.8 WSW 20 30 11 16 - - 2.2
18/03:00pm 7.2 0.8 3.4 77 1.6 SW 26 50 14 27 - - 2.2
18/02:41pm 9.6 2.0 3.8 67 2.6 WSW 33 69 18 37 - - 1.6
18/02:34pm 9.9 3.3 4.3 68 2.5 WSW 28 48 15 26 - - 1.6
18/02:30pm 9.6 4.5 4.0 68 2.5 WSW 20 44 11 24 - - 1.6
18/02:00pm 11.3 5.5 4.3 62 3.2 SW 24 39 13 21 - - 1.2
18/01:30pm 10.4 3.9 4.5 67 2.7 WSW 28 39 15 21 - - 1.2
18/01:00pm 8.7 1.6 3.5 70 2.3 WSW 30 50 16 27 - - 1.2
18/12:42pm 10.7 3.8 4.4 65 2.8 WSW 30 50 16 27 - - 1.2
18/12:30pm 10.4 3.5 4.8 68 2.5 WSW 30 46 16 25 - - 1.0
18/12:00pm 9.7 3.1 4.3 69 2.4 WSW 28 44 15 24 - - 1.0
18/11:30am 9.2 3.2 5.2 76 1.8 W 26 41 14 22 - - 1.0
18/11:00am 7.2 1.1 5.0 86 1.0 WSW 26 41 14 22 - - 1.0
18/10:43am 9.2 2.7 4.6 73 2.1 WSW 28 46 15 25 - - 0.0
18/10:30am 10.2 5.4 5.4 72 2.2 WSW 20 32 11 17 - - 0.0
18/10:00am 9.4 3.8 5.4 76 1.8 W 24 39 13 21 - - 0.0
18/09:30am 8.8 5.1 6.1 83 1.2 W 15 22 8 12 - - 0.0
18/09:00am 7.2 3.3 5.5 89 0.8 W 15 22 8 12 - - 6.2
18/08:30am 6.2 2.9 4.7 90 0.7 WSW 11 17 6 9 - - 6.2
18/08:00am 5.7 3.0 3.9 88 0.8 WSW 7 11 4 6 - - 5.8
18/07:30am 5.9 1.3 3.9 87 0.9 WSW 17 24 9 13 - - 5.8
18/07:00am 6.0 1.2 4.5 90 0.7 SW 19 30 10 16 - - 5.4
18/06:30am 6.1 3.2 4.4 89 0.7 W 9 13 5 7 - - 4.0
18/06:00am 6.5 1.7 4.5 87 0.9 WSW 19 32 10 17 - - 4.0
18/05:30am 6.8 1.7 3.2 78 1.5 W 19 28 10 15 - - 3.8
18/05:00am 6.4 1.5 4.2 86 1.0 W 19 28 10 15 - - 3.8
18/04:30am 6.4 1.5 4.1 85 1.0 W 19 26 10 14 - - 3.8
18/04:00am 6.8 1.8 4.8 87 0.9 W 20 32 11 17 - - 3.6
18/03:30am 6.9 2.9 4.9 87 0.9 WSW 15 28 8 15 - - 3.6
18/03:00am 6.9 2.1 4.7 86 1.0 W 19 28 10 15 - - 3.6
18/02:30am 6.9 1.5 4.7 86 1.0 W 22 32 12 17 - - 3.6
18/02:07am 6.9 0.3 4.4 84 1.1 W 28 54 15 29 - - 3.6
18/02:00am 6.9 1.8 4.0 82 1.3 W 20 30 11 16 - - 3.4
18/01:30am 6.8 1.2 3.2 78 1.5 W 22 35 12 19 - - 3.4
18/01:00am 7.1 0.8 3.7 79 1.5 W 26 39 14 21 - - 3.4
18/12:39am 7.5 0.5 4.3 80 1.4 W 30 52 16 28 - - 3.2
18/12:30am 7.4 1.1 4.0 79 1.5 W 26 39 14 21 - - 3.2
18/12:00am 7.1 2.2 3.9 80 1.4 WNW 19 28 10 15 - - 3.2
 
Date/Time
EST
Temp
°C
App
Temp
°C
Dew
Point
°C
Rel
Hum
%
Delta-T
°C
Wind Press
QNH
hPa
Press
MSL
hPa
Rain since
9am
mm
Dir  Spd
km/h
Gust
km/h
Spd
kts
Gust
kts
17/11:30pm 7.3 1.9 4.3 81 1.3 W 22 39 12 21 - - 3.2
17/11:00pm 7.5 2.4 4.3 80 1.4 WNW 20 28 11 15 - - 3.2
17/10:30pm 7.7 2.0 4.7 81 1.3 WNW 24 35 13 19 - - 3.2
17/10:00pm 7.6 2.5 4.2 79 1.5 WNW 20 28 11 15 - - 3.2
17/09:30pm 7.6 2.6 4.6 81 1.3 WNW 20 33 11 18 - - 3.2
17/09:00pm 7.3 2.8 4.4 82 1.3 WNW 17 24 9 13 - - 3.2
17/08:30pm 6.3 3.1 5.3 93 0.4 WNW 11 17 6 9 - - 3.2
17/08:00pm 5.4 2.4 4.2 92 0.5 W 9 13 5 7 - - 3.2
17/07:30pm 6.1 0.7 4.7 91 0.6 WSW 22 48 12 26 - - 3.2
17/07:24pm 6.0 -0.6 4.2 88 0.8 WSW 28 48 15 26 - - 3.0
17/07:21pm 5.9 -0.4 3.7 86 0.9 WSW 26 48 14 26 - - 3.0
17/07:00pm 7.7 4.3 6.0 89 0.8 NW 13 24 7 13 - - 0.8
17/06:30pm 8.7 3.9 5.8 82 1.3 WNW 20 32 11 17 - - 0.6
17/06:00pm 9.3 4.1 5.3 76 1.8 WNW 22 33 12 18 - - 0.6
17/05:30pm 8.7 5.4 6.2 84 1.2 WNW 13 19 7 10 - - 0.6
17/05:00pm 8.0 3.3 5.1 82 1.3 W 19 28 10 15 - - 0.6
17/04:40pm 7.9 1.3 4.3 78 1.6 W 28 48 15 26 - - 0.6
17/04:31pm 8.9 0.6 4.3 73 2.0 WNW 37 54 20 29 - - 0.6
17/04:30pm 9.2 1.0 5.0 75 1.9 WNW 37 54 20 29 - - 0.6
17/04:16pm 10.6 4.3 5.8 72 2.2 WNW 28 50 15 27 - - 0.6
17/04:00pm 10.4 4.9 6.0 74 2.1 WNW 24 37 13 20 - - 0.6

Other Formats:

Comma delimited format used in spreadsheet applications
http://www.bom.gov.au/fwo/IDV60801/IDV60801.95832.axf

JavaScript Object Notation format (JSON) in row-major order
http://www.bom.gov.au/fwo/IDV60801/IDV60801.95832.json